sensor_id;sensor_type;location;lat;lon;timestamp;P1;durP1;ratioP1;P2;durP2;ratioP2
51792;SDS011;37850;53.178;6.376;2023-02-15T00:01:58;20.92;;;15.07;;
51792;SDS011;37850;53.178;6.376;2023-02-15T00:04:24;21.20;;;14.57;;
51792;SDS011;37850;53.178;6.376;2023-02-15T00:07:10;21.15;;;14.65;;
51792;SDS011;37850;53.178;6.376;2023-02-15T00:09:36;21.25;;;15.43;;
51792;SDS011;37850;53.178;6.376;2023-02-15T00:12:02;18.95;;;15.05;;
51792;SDS011;37850;53.178;6.376;2023-02-15T00:14:28;19.40;;;14.52;;
51792;SDS011;37850;53.178;6.376;2023-02-15T00:16:54;18.67;;;13.85;;
51792;SDS011;37850;53.178;6.376;2023-02-15T00:19:20;20.02;;;14.85;;
51792;SDS011;37850;53.178;6.376;2023-02-15T00:21:47;17.45;;;13.45;;
51792;SDS011;37850;53.178;6.376;2023-02-15T00:24:15;17.13;;;13.63;;
51792;SDS011;37850;53.178;6.376;2023-02-15T00:26:42;19.42;;;14.27;;
51792;SDS011;37850;53.178;6.376;2023-02-15T00:29:09;17.95;;;14.63;;
51792;SDS011;37850;53.178;6.376;2023-02-15T00:31:35;18.02;;;14.35;;
51792;SDS011;37850;53.178;6.376;2023-02-15T00:34:03;19.42;;;14.35;;
51792;SDS011;37850;53.178;6.376;2023-02-15T00:36:38;18.40;;;14.15;;
51792;SDS011;37850;53.178;6.376;2023-02-15T00:39:04;17.95;;;14.25;;
51792;SDS011;37850;53.178;6.376;2023-02-15T00:41:31;18.63;;;13.00;;
51792;SDS011;37850;53.178;6.376;2023-02-15T00:43:57;18.50;;;14.00;;
51792;SDS011;37850;53.178;6.376;2023-02-15T00:46:23;16.85;;;13.80;;
51792;SDS011;37850;53.178;6.376;2023-02-15T00:48:49;19.27;;;13.98;;
51792;SDS011;37850;53.178;6.376;2023-02-15T00:51:14;17.75;;;14.07;;
51792;SDS011;37850;53.178;6.376;2023-02-15T00:53:42;17.20;;;13.57;;
51792;SDS011;37850;53.178;6.376;2023-02-15T00:56:12;17.27;;;13.38;;
51792;SDS011;37850;53.178;6.376;2023-02-15T00:58:38;17.50;;;13.90;;
51792;SDS011;37850;53.178;6.376;2023-02-15T01:01:05;18.63;;;14.32;;
51792;SDS011;37850;53.178;6.376;2023-02-15T01:03:33;19.33;;;14.90;;
51792;SDS011;37850;53.178;6.376;2023-02-15T01:05:59;25.00;;;15.55;;
51792;SDS011;37850;53.178;6.376;2023-02-15T01:08:25;32.95;;;16.88;;
51792;SDS011;37850;53.178;6.376;2023-02-15T01:10:50;25.67;;;15.45;;
51792;SDS011;37850;53.178;6.376;2023-02-15T01:13:16;28.63;;;15.98;;
51792;SDS011;37850;53.178;6.376;2023-02-15T01:15:43;34.67;;;17.85;;
51792;SDS011;37850;53.178;6.376;2023-02-15T01:18:09;28.85;;;16.02;;
51792;SDS011;37850;53.178;6.376;2023-02-15T01:20:38;24.52;;;15.73;;
51792;SDS011;37850;53.178;6.376;2023-02-15T01:23:06;25.08;;;16.13;;
51792;SDS011;37850;53.178;6.376;2023-02-15T01:25:33;26.25;;;14.75;;
51792;SDS011;37850;53.178;6.376;2023-02-15T01:28:00;27.50;;;16.35;;
51792;SDS011;37850;53.178;6.376;2023-02-15T01:30:26;25.95;;;16.67;;
51792;SDS011;37850;53.178;6.376;2023-02-15T01:32:52;31.50;;;18.15;;
51792;SDS011;37850;53.178;6.376;2023-02-15T01:35:17;37.85;;;19.13;;
51792;SDS011;37850;53.178;6.376;2023-02-15T01:37:43;35.53;;;19.58;;
51792;SDS011;37850;53.178;6.376;2023-02-15T01:40:12;40.35;;;19.75;;
51792;SDS011;37850;53.178;6.376;2023-02-15T01:42:40;39.88;;;21.02;;
51792;SDS011;37850;53.178;6.376;2023-02-15T01:45:20;43.13;;;21.63;;
51792;SDS011;37850;53.178;6.376;2023-02-15T01:47:56;39.47;;;20.45;;
51792;SDS011;37850;53.178;6.376;2023-02-15T01:50:34;34.38;;;18.55;;
51792;SDS011;37850;53.178;6.376;2023-02-15T01:55:39;29.52;;;18.80;;
51792;SDS011;37850;53.178;6.376;2023-02-15T01:58:15;33.38;;;19.45;;
51792;SDS011;37850;53.178;6.376;2023-02-15T02:00:41;29.60;;;17.77;;
51792;SDS011;37850;53.178;6.376;2023-02-15T02:03:08;36.22;;;19.08;;
51792;SDS011;37850;53.178;6.376;2023-02-15T02:05:34;34.65;;;18.77;;
51792;SDS011;37850;53.178;6.376;2023-02-15T02:08:00;35.65;;;18.90;;
51792;SDS011;37850;53.178;6.376;2023-02-15T02:10:27;33.72;;;17.77;;
51792;SDS011;37850;53.178;6.376;2023-02-15T02:12:58;35.80;;;19.15;;
51792;SDS011;37850;53.178;6.376;2023-02-15T02:15:29;33.63;;;18.77;;
51792;SDS011;37850;53.178;6.376;2023-02-15T02:18:09;33.42;;;19.00;;
51792;SDS011;37850;53.178;6.376;2023-02-15T02:23:36;36.13;;;19.42;;
51792;SDS011;37850;53.178;6.376;2023-02-15T02:36:59;39.78;;;19.88;;
51792;SDS011;37850;53.178;6.376;2023-02-15T02:42:43;36.63;;;21.08;;
51792;SDS011;37850;53.178;6.376;2023-02-15T02:45:16;39.15;;;21.63;;
51792;SDS011;37850;53.178;6.376;2023-02-15T02:47:58;34.35;;;20.38;;
51792;SDS011;37850;53.178;6.376;2023-02-15T02:50:29;37.17;;;21.35;;
51792;SDS011;37850;53.178;6.376;2023-02-15T02:52:55;39.35;;;21.98;;
51792;SDS011;37850;53.178;6.376;2023-02-15T02:57:52;34.70;;;20.70;;
51792;SDS011;37850;53.178;6.376;2023-02-15T03:00:21;34.22;;;20.50;;
51792;SDS011;37850;53.178;6.376;2023-02-15T03:02:51;29.98;;;19.65;;
51792;SDS011;37850;53.178;6.376;2023-02-15T03:05:25;31.20;;;19.33;;
51792;SDS011;37850;53.178;6.376;2023-02-15T03:07:54;30.88;;;18.98;;
51792;SDS011;37850;53.178;6.376;2023-02-15T03:10:22;28.23;;;18.83;;
51792;SDS011;37850;53.178;6.376;2023-02-15T03:12:49;30.92;;;18.08;;
51792;SDS011;37850;53.178;6.376;2023-02-15T03:15:19;26.13;;;17.80;;
51792;SDS011;37850;53.178;6.376;2023-02-15T03:17:49;29.42;;;17.67;;
51792;SDS011;37850;53.178;6.376;2023-02-15T03:20:22;25.48;;;16.92;;
51792;SDS011;37850;53.178;6.376;2023-02-15T03:23:07;26.65;;;17.52;;
51792;SDS011;37850;53.178;6.376;2023-02-15T03:25:40;24.63;;;16.60;;
51792;SDS011;37850;53.178;6.376;2023-02-15T03:28:08;27.10;;;17.05;;
51792;SDS011;37850;53.178;6.376;2023-02-15T03:30:38;22.63;;;14.70;;
51792;SDS011;37850;53.178;6.376;2023-02-15T03:33:07;21.80;;;14.88;;
51792;SDS011;37850;53.178;6.376;2023-02-15T03:35:54;23.80;;;15.55;;
51792;SDS011;37850;53.178;6.376;2023-02-15T03:38:33;20.65;;;14.20;;
51792;SDS011;37850;53.178;6.376;2023-02-15T03:41:05;20.88;;;14.27;;
51792;SDS011;37850;53.178;6.376;2023-02-15T03:46:33;22.63;;;14.63;;
51792;SDS011;37850;53.178;6.376;2023-02-15T03:52:13;19.60;;;13.50;;
51792;SDS011;37850;53.178;6.376;2023-02-15T03:54:41;21.35;;;14.43;;
51792;SDS011;37850;53.178;6.376;2023-02-15T04:00:24;20.27;;;14.23;;
51792;SDS011;37850;53.178;6.376;2023-02-15T04:03:20;20.80;;;14.40;;
51792;SDS011;37850;53.178;6.376;2023-02-15T04:06:08;22.73;;;15.18;;
51792;SDS011;37850;53.178;6.376;2023-02-15T04:08:33;21.52;;;14.82;;
51792;SDS011;37850;53.178;6.376;2023-02-15T04:11:18;23.73;;;15.35;;
51792;SDS011;37850;53.178;6.376;2023-02-15T04:13:44;24.42;;;15.77;;
51792;SDS011;37850;53.178;6.376;2023-02-15T04:16:10;21.95;;;14.40;;
51792;SDS011;37850;53.178;6.376;2023-02-15T04:18:42;22.17;;;15.23;;
51792;SDS011;37850;53.178;6.376;2023-02-15T04:21:28;23.95;;;14.20;;
51792;SDS011;37850;53.178;6.376;2023-02-15T04:24:13;23.08;;;15.48;;
51792;SDS011;37850;53.178;6.376;2023-02-15T04:26:58;22.27;;;14.95;;
51792;SDS011;37850;53.178;6.376;2023-02-15T04:29:25;24.15;;;15.38;;
51792;SDS011;37850;53.178;6.376;2023-02-15T04:31:53;22.45;;;14.75;;
51792;SDS011;37850;53.178;6.376;2023-02-15T04:34:20;25.30;;;14.88;;
51792;SDS011;37850;53.178;6.376;2023-02-15T04:36:46;23.95;;;15.95;;
51792;SDS011;37850;53.178;6.376;2023-02-15T04:39:16;23.33;;;14.93;;
51792;SDS011;37850;53.178;6.376;2023-02-15T04:41:43;20.83;;;12.43;;
51792;SDS011;37850;53.178;6.376;2023-02-15T04:44:09;23.70;;;15.43;;
51792;SDS011;37850;53.178;6.376;2023-02-15T04:46:36;24.45;;;15.48;;
51792;SDS011;37850;53.178;6.376;2023-02-15T04:49:02;25.83;;;16.33;;
51792;SDS011;37850;53.178;6.376;2023-02-15T04:51:28;26.67;;;16.40;;
51792;SDS011;37850;53.178;6.376;2023-02-15T04:53:53;25.80;;;15.82;;
51792;SDS011;37850;53.178;6.376;2023-02-15T04:56:19;25.13;;;16.58;;
51792;SDS011;37850;53.178;6.376;2023-02-15T04:58:46;23.30;;;15.75;;
51792;SDS011;37850;53.178;6.376;2023-02-15T05:01:12;28.08;;;16.15;;
51792;SDS011;37850;53.178;6.376;2023-02-15T05:03:38;24.38;;;15.55;;
51792;SDS011;37850;53.178;6.376;2023-02-15T05:06:04;25.85;;;16.33;;
51792;SDS011;37850;53.178;6.376;2023-02-15T05:08:30;32.10;;;18.77;;
51792;SDS011;37850;53.178;6.376;2023-02-15T05:10:56;29.20;;;18.23;;
51792;SDS011;37850;53.178;6.376;2023-02-15T05:13:22;36.88;;;22.02;;
51792;SDS011;37850;53.178;6.376;2023-02-15T05:15:49;36.17;;;21.67;;
51792;SDS011;37850;53.178;6.376;2023-02-15T05:18:16;37.05;;;20.83;;
51792;SDS011;37850;53.178;6.376;2023-02-15T05:20:43;43.05;;;23.98;;
51792;SDS011;37850;53.178;6.376;2023-02-15T05:23:09;46.53;;;25.10;;
51792;SDS011;37850;53.178;6.376;2023-02-15T05:25:35;57.58;;;31.63;;
51792;SDS011;37850;53.178;6.376;2023-02-15T05:28:20;63.60;;;34.75;;
51792;SDS011;37850;53.178;6.376;2023-02-15T05:30:47;70.80;;;37.08;;
51792;SDS011;37850;53.178;6.376;2023-02-15T05:33:34;75.13;;;38.15;;
51792;SDS011;37850;53.178;6.376;2023-02-15T05:36:00;85.45;;;43.20;;
51792;SDS011;37850;53.178;6.376;2023-02-15T05:38:27;85.63;;;43.58;;
51792;SDS011;37850;53.178;6.376;2023-02-15T05:40:53;88.57;;;44.38;;
51792;SDS011;37850;53.178;6.376;2023-02-15T05:43:19;98.25;;;47.72;;
51792;SDS011;37850;53.178;6.376;2023-02-15T05:45:50;93.68;;;44.80;;
51792;SDS011;37850;53.178;6.376;2023-02-15T05:48:20;98.78;;;48.70;;
51792;SDS011;37850;53.178;6.376;2023-02-15T05:53:29;96.93;;;46.85;;
51792;SDS011;37850;53.178;6.376;2023-02-15T05:55:57;101.45;;;49.03;;
51792;SDS011;37850;53.178;6.376;2023-02-15T05:58:28;114.55;;;50.92;;
51792;SDS011;37850;53.178;6.376;2023-02-15T06:00:55;100.38;;;49.78;;
51792;SDS011;37850;53.178;6.376;2023-02-15T06:03:21;112.15;;;51.35;;
51792;SDS011;37850;53.178;6.376;2023-02-15T06:05:48;103.05;;;50.45;;
51792;SDS011;37850;53.178;6.376;2023-02-15T06:08:14;112.28;;;51.60;;
51792;SDS011;37850;53.178;6.376;2023-02-15T06:10:40;104.38;;;49.85;;
51792;SDS011;37850;53.178;6.376;2023-02-15T06:13:06;121.70;;;55.92;;
51792;SDS011;37850;53.178;6.376;2023-02-15T06:15:32;122.07;;;55.03;;
51792;SDS011;37850;53.178;6.376;2023-02-15T06:17:58;107.90;;;52.92;;
51792;SDS011;37850;53.178;6.376;2023-02-15T06:20:24;115.38;;;53.55;;
51792;SDS011;37850;53.178;6.376;2023-02-15T06:22:49;127.05;;;56.08;;
51792;SDS011;37850;53.178;6.376;2023-02-15T06:25:15;138.73;;;59.70;;
51792;SDS011;37850;53.178;6.376;2023-02-15T06:27:41;123.18;;;57.83;;
51792;SDS011;37850;53.178;6.376;2023-02-15T06:30:10;123.30;;;56.47;;
51792;SDS011;37850;53.178;6.376;2023-02-15T06:32:37;134.23;;;57.50;;
51792;SDS011;37850;53.178;6.376;2023-02-15T06:35:03;145.35;;;62.38;;
51792;SDS011;37850;53.178;6.376;2023-02-15T06:37:29;136.65;;;58.55;;
51792;SDS011;37850;53.178;6.376;2023-02-15T06:39:55;125.25;;;57.40;;
51792;SDS011;37850;53.178;6.376;2023-02-15T06:42:21;120.32;;;56.53;;
51792;SDS011;37850;53.178;6.376;2023-02-15T06:44:47;101.10;;;50.83;;
51792;SDS011;37850;53.178;6.376;2023-02-15T06:47:13;106.63;;;49.95;;
51792;SDS011;37850;53.178;6.376;2023-02-15T06:49:39;103.68;;;53.05;;
51792;SDS011;37850;53.178;6.376;2023-02-15T06:52:05;109.78;;;51.75;;
51792;SDS011;37850;53.178;6.376;2023-02-15T06:54:30;110.15;;;53.78;;
51792;SDS011;37850;53.178;6.376;2023-02-15T06:56:56;116.38;;;52.38;;
51792;SDS011;37850;53.178;6.376;2023-02-15T06:59:22;107.60;;;50.30;;
51792;SDS011;37850;53.178;6.376;2023-02-15T07:01:47;109.68;;;54.10;;
51792;SDS011;37850;53.178;6.376;2023-02-15T07:04:14;114.20;;;53.40;;
51792;SDS011;37850;53.178;6.376;2023-02-15T07:06:40;115.00;;;52.58;;
51792;SDS011;37850;53.178;6.376;2023-02-15T07:09:06;117.28;;;55.35;;
51792;SDS011;37850;53.178;6.376;2023-02-15T07:11:32;107.80;;;52.67;;
51792;SDS011;37850;53.178;6.376;2023-02-15T07:14:37;115.63;;;51.88;;
51792;SDS011;37850;53.178;6.376;2023-02-15T07:17:02;121.68;;;52.75;;
51792;SDS011;37850;53.178;6.376;2023-02-15T07:19:28;115.13;;;52.17;;
51792;SDS011;37850;53.178;6.376;2023-02-15T07:21:54;98.70;;;49.17;;
51792;SDS011;37850;53.178;6.376;2023-02-15T07:24:19;100.10;;;48.83;;
51792;SDS011;37850;53.178;6.376;2023-02-15T07:26:45;112.85;;;52.90;;
51792;SDS011;37850;53.178;6.376;2023-02-15T07:29:11;101.55;;;50.35;;
51792;SDS011;37850;53.178;6.376;2023-02-15T07:31:36;99.63;;;50.45;;
51792;SDS011;37850;53.178;6.376;2023-02-15T07:34:02;102.13;;;49.08;;
51792;SDS011;37850;53.178;6.376;2023-02-15T07:36:28;101.45;;;49.20;;
51792;SDS011;37850;53.178;6.376;2023-02-15T07:38:53;99.22;;;49.22;;
51792;SDS011;37850;53.178;6.376;2023-02-15T07:41:19;93.55;;;45.03;;
51792;SDS011;37850;53.178;6.376;2023-02-15T07:43:45;80.60;;;41.60;;
51792;SDS011;37850;53.178;6.376;2023-02-15T07:46:12;83.45;;;44.08;;
51792;SDS011;37850;53.178;6.376;2023-02-15T07:48:39;90.20;;;46.17;;
51792;SDS011;37850;53.178;6.376;2023-02-15T07:51:07;87.10;;;44.22;;
51792;SDS011;37850;53.178;6.376;2023-02-15T07:53:33;87.78;;;43.08;;
51792;SDS011;37850;53.178;6.376;2023-02-15T07:56:00;85.63;;;43.05;;
51792;SDS011;37850;53.178;6.376;2023-02-15T07:58:31;67.93;;;39.85;;
51792;SDS011;37850;53.178;6.376;2023-02-15T08:01:15;76.80;;;39.08;;
51792;SDS011;37850;53.178;6.376;2023-02-15T08:03:42;73.65;;;40.20;;
51792;SDS011;37850;53.178;6.376;2023-02-15T08:06:08;70.85;;;39.58;;
51792;SDS011;37850;53.178;6.376;2023-02-15T08:08:36;66.93;;;37.20;;
51792;SDS011;37850;53.178;6.376;2023-02-15T08:11:07;73.43;;;37.40;;
51792;SDS011;37850;53.178;6.376;2023-02-15T08:14:03;66.15;;;36.83;;
51792;SDS011;37850;53.178;6.376;2023-02-15T08:21:36;59.17;;;34.65;;
51792;SDS011;37850;53.178;6.376;2023-02-15T08:24:04;63.35;;;34.00;;
51792;SDS011;37850;53.178;6.376;2023-02-15T08:26:31;60.95;;;33.55;;
51792;SDS011;37850;53.178;6.376;2023-02-15T08:28:58;59.75;;;32.03;;
51792;SDS011;37850;53.178;6.376;2023-02-15T08:31:24;63.35;;;35.58;;
51792;SDS011;37850;53.178;6.376;2023-02-15T08:33:51;59.38;;;33.85;;
51792;SDS011;37850;53.178;6.376;2023-02-15T08:36:19;60.15;;;34.90;;
51792;SDS011;37850;53.178;6.376;2023-02-15T08:38:46;55.33;;;33.40;;
51792;SDS011;37850;53.178;6.376;2023-02-15T08:41:13;58.88;;;32.60;;
51792;SDS011;37850;53.178;6.376;2023-02-15T08:43:44;53.20;;;30.42;;
51792;SDS011;37850;53.178;6.376;2023-02-15T08:46:13;59.17;;;32.70;;
51792;SDS011;37850;53.178;6.376;2023-02-15T08:48:40;54.95;;;30.83;;
51792;SDS011;37850;53.178;6.376;2023-02-15T08:51:10;52.65;;;30.95;;
51792;SDS011;37850;53.178;6.376;2023-02-15T08:53:39;51.60;;;29.80;;
51792;SDS011;37850;53.178;6.376;2023-02-15T08:56:09;49.30;;;28.98;;
51792;SDS011;37850;53.178;6.376;2023-02-15T08:58:35;51.08;;;30.63;;
51792;SDS011;37850;53.178;6.376;2023-02-15T09:01:07;55.70;;;31.98;;
51792;SDS011;37850;53.178;6.376;2023-02-15T09:03:43;51.75;;;30.73;;
51792;SDS011;37850;53.178;6.376;2023-02-15T09:06:09;57.83;;;31.50;;
51792;SDS011;37850;53.178;6.376;2023-02-15T09:08:36;51.67;;;30.50;;
51792;SDS011;37850;53.178;6.376;2023-02-15T09:11:10;55.25;;;30.85;;
51792;SDS011;37850;53.178;6.376;2023-02-15T09:13:37;55.35;;;29.85;;
51792;SDS011;37850;53.178;6.376;2023-02-15T09:16:04;48.13;;;29.35;;
51792;SDS011;37850;53.178;6.376;2023-02-15T09:18:34;56.50;;;31.23;;
51792;SDS011;37850;53.178;6.376;2023-02-15T09:23:32;49.10;;;30.13;;
51792;SDS011;37850;53.178;6.376;2023-02-15T09:26:01;52.80;;;30.02;;
51792;SDS011;37850;53.178;6.376;2023-02-15T09:28:28;52.53;;;30.50;;
51792;SDS011;37850;53.178;6.376;2023-02-15T09:30:54;50.97;;;31.30;;
51792;SDS011;37850;53.178;6.376;2023-02-15T09:33:20;53.63;;;30.52;;
51792;SDS011;37850;53.178;6.376;2023-02-15T09:35:47;50.72;;;29.50;;
51792;SDS011;37850;53.178;6.376;2023-02-15T09:38:12;52.10;;;30.55;;
51792;SDS011;37850;53.178;6.376;2023-02-15T09:40:49;47.78;;;29.50;;
51792;SDS011;37850;53.178;6.376;2023-02-15T09:43:34;57.88;;;31.52;;
51792;SDS011;37850;53.178;6.376;2023-02-15T09:49:22;51.00;;;31.67;;
51792;SDS011;37850;53.178;6.376;2023-02-15T09:52:08;49.03;;;28.88;;
51792;SDS011;37850;53.178;6.376;2023-02-15T10:03:33;52.08;;;29.83;;
51792;SDS011;37850;53.178;6.376;2023-02-15T10:17:39;52.10;;;30.98;;
51792;SDS011;37850;53.178;6.376;2023-02-15T10:20:21;57.38;;;32.47;;
51792;SDS011;37850;53.178;6.376;2023-02-15T10:33:56;55.63;;;32.20;;
51792;SDS011;37850;53.178;6.376;2023-02-15T10:36:39;54.53;;;31.95;;
51792;SDS011;37850;53.178;6.376;2023-02-15T10:39:10;57.05;;;33.05;;
51792;SDS011;37850;53.178;6.376;2023-02-15T10:42:09;57.50;;;33.15;;
51792;SDS011;37850;53.178;6.376;2023-02-15T10:44:40;50.28;;;31.17;;
51792;SDS011;37850;53.178;6.376;2023-02-15T10:47:48;51.53;;;30.08;;
51792;SDS011;37850;53.178;6.376;2023-02-15T10:56:35;56.50;;;33.42;;
51792;SDS011;37850;53.178;6.376;2023-02-15T11:05:44;62.08;;;34.22;;
51792;SDS011;37850;53.178;6.376;2023-02-15T11:07:47;60.63;;;34.28;;
51792;SDS011;37850;53.178;6.376;2023-02-15T11:12:44;59.97;;;33.70;;
51792;SDS011;37850;53.178;6.376;2023-02-15T11:15:21;58.28;;;33.50;;
51792;SDS011;37850;53.178;6.376;2023-02-15T11:18:28;60.30;;;33.58;;
51792;SDS011;37850;53.178;6.376;2023-02-15T11:20:58;58.80;;;31.95;;
51792;SDS011;37850;53.178;6.376;2023-02-15T11:23:28;55.80;;;32.03;;
51792;SDS011;37850;53.178;6.376;2023-02-15T11:25:58;56.13;;;32.67;;
51792;SDS011;37850;53.178;6.376;2023-02-15T11:31:29;57.40;;;32.42;;
51792;SDS011;37850;53.178;6.376;2023-02-15T11:34:22;54.45;;;31.73;;
51792;SDS011;37850;53.178;6.376;2023-02-15T11:36:57;57.58;;;30.77;;
51792;SDS011;37850;53.178;6.376;2023-02-15T11:39:27;51.47;;;30.50;;
51792;SDS011;37850;53.178;6.376;2023-02-15T11:41:57;52.72;;;29.73;;
51792;SDS011;37850;53.178;6.376;2023-02-15T11:44:36;52.67;;;30.25;;
51792;SDS011;37850;53.178;6.376;2023-02-15T11:47:11;56.88;;;30.58;;
51792;SDS011;37850;53.178;6.376;2023-02-15T11:49:38;52.85;;;31.10;;
51792;SDS011;37850;53.178;6.376;2023-02-15T11:52:05;49.05;;;29.17;;
51792;SDS011;37850;53.178;6.376;2023-02-15T11:54:34;52.65;;;30.80;;
51792;SDS011;37850;53.178;6.376;2023-02-15T11:57:14;55.03;;;30.25;;
51792;SDS011;37850;53.178;6.376;2023-02-15T12:00:10;52.55;;;29.23;;
51792;SDS011;37850;53.178;6.376;2023-02-15T12:02:56;50.75;;;29.00;;
51792;SDS011;37850;53.178;6.376;2023-02-15T12:05:23;50.20;;;28.50;;
51792;SDS011;37850;53.178;6.376;2023-02-15T12:08:37;49.65;;;28.92;;
51792;SDS011;37850;53.178;6.376;2023-02-15T12:11:03;50.75;;;29.85;;
51792;SDS011;37850;53.178;6.376;2023-02-15T12:16:43;58.70;;;29.88;;
51792;SDS011;37850;53.178;6.376;2023-02-15T12:21:54;54.42;;;29.73;;
51792;SDS011;37850;53.178;6.376;2023-02-15T12:24:32;52.13;;;29.17;;
51792;SDS011;37850;53.178;6.376;2023-02-15T12:27:23;55.35;;;29.17;;
51792;SDS011;37850;53.178;6.376;2023-02-15T12:32:34;55.63;;;30.63;;
51792;SDS011;37850;53.178;6.376;2023-02-15T12:35:09;53.03;;;30.42;;
51792;SDS011;37850;53.178;6.376;2023-02-15T12:37:40;58.80;;;31.27;;
51792;SDS011;37850;53.178;6.376;2023-02-15T12:40:23;53.63;;;30.40;;
51792;SDS011;37850;53.178;6.376;2023-02-15T12:42:51;53.47;;;29.40;;
51792;SDS011;37850;53.178;6.376;2023-02-15T12:45:24;59.63;;;30.92;;
51792;SDS011;37850;53.178;6.376;2023-02-15T12:50:37;54.38;;;30.60;;
51792;SDS011;37850;53.178;6.376;2023-02-15T12:53:12;55.58;;;29.90;;
51792;SDS011;37850;53.178;6.376;2023-02-15T12:55:54;54.15;;;30.67;;
51792;SDS011;37850;53.178;6.376;2023-02-15T12:58:23;56.20;;;32.58;;
51792;SDS011;37850;53.178;6.376;2023-02-15T13:03:28;56.63;;;30.98;;
51792;SDS011;37850;53.178;6.376;2023-02-15T13:05:55;54.40;;;30.52;;
51792;SDS011;37850;53.178;6.376;2023-02-15T13:08:33;51.78;;;30.10;;
51792;SDS011;37850;53.178;6.376;2023-02-15T13:11:06;50.83;;;28.15;;
51792;SDS011;37850;53.178;6.376;2023-02-15T13:13:58;50.40;;;28.58;;
51792;SDS011;37850;53.178;6.376;2023-02-15T13:19:06;51.17;;;29.00;;
51792;SDS011;37850;53.178;6.376;2023-02-15T13:21:41;51.80;;;27.67;;
51792;SDS011;37850;53.178;6.376;2023-02-15T13:26:54;55.10;;;27.80;;
51792;SDS011;37850;53.178;6.376;2023-02-15T13:31:47;53.35;;;27.13;;
51792;SDS011;37850;53.178;6.376;2023-02-15T13:34:16;46.78;;;26.48;;
51792;SDS011;37850;53.178;6.376;2023-02-15T13:53:42;47.90;;;26.83;;
51792;SDS011;37850;53.178;6.376;2023-02-15T14:01:57;45.53;;;26.90;;
51792;SDS011;37850;53.178;6.376;2023-02-15T14:10:43;48.70;;;26.73;;
51792;SDS011;37850;53.178;6.376;2023-02-15T14:18:55;42.85;;;25.45;;
51792;SDS011;37850;53.178;6.376;2023-02-15T14:21:47;52.08;;;26.05;;
51792;SDS011;37850;53.178;6.376;2023-02-15T14:27:48;46.08;;;26.23;;
51792;SDS011;37850;53.178;6.376;2023-02-15T14:30:32;43.92;;;25.42;;
51792;SDS011;37850;53.178;6.376;2023-02-15T14:35:53;46.75;;;26.42;;
51792;SDS011;37850;53.178;6.376;2023-02-15T14:41:00;43.03;;;25.42;;
51792;SDS011;37850;53.178;6.376;2023-02-15T14:54:13;40.65;;;22.75;;
51792;SDS011;37850;53.178;6.376;2023-02-15T15:02:26;44.10;;;23.33;;
51792;SDS011;37850;53.178;6.376;2023-02-15T15:05:00;41.73;;;23.33;;
51792;SDS011;37850;53.178;6.376;2023-02-15T15:07:37;44.03;;;23.02;;
51792;SDS011;37850;53.178;6.376;2023-02-15T15:10:40;46.17;;;24.63;;
51792;SDS011;37850;53.178;6.376;2023-02-15T15:15:56;44.13;;;24.45;;
51792;SDS011;37850;53.178;6.376;2023-02-15T15:18:43;42.63;;;24.02;;
51792;SDS011;37850;53.178;6.376;2023-02-15T15:21:09;43.90;;;24.33;;
51792;SDS011;37850;53.178;6.376;2023-02-15T15:23:42;45.42;;;25.83;;
51792;SDS011;37850;53.178;6.376;2023-02-15T15:26:25;45.92;;;25.98;;
51792;SDS011;37850;53.178;6.376;2023-02-15T15:28:59;49.45;;;27.05;;
51792;SDS011;37850;53.178;6.376;2023-02-15T15:42:32;46.55;;;25.15;;
51792;SDS011;37850;53.178;6.376;2023-02-15T15:48:01;41.05;;;24.17;;
51792;SDS011;37850;53.178;6.376;2023-02-15T15:50:44;43.55;;;24.73;;
51792;SDS011;37850;53.178;6.376;2023-02-15T15:53:19;46.00;;;25.85;;
51792;SDS011;37850;53.178;6.376;2023-02-15T15:55:47;42.80;;;24.35;;
51792;SDS011;37850;53.178;6.376;2023-02-15T15:58:16;44.60;;;25.10;;
51792;SDS011;37850;53.178;6.376;2023-02-15T16:00:46;47.33;;;25.65;;
51792;SDS011;37850;53.178;6.376;2023-02-15T16:03:16;48.47;;;26.47;;
51792;SDS011;37850;53.178;6.376;2023-02-15T16:05:47;42.97;;;25.40;;
51792;SDS011;37850;53.178;6.376;2023-02-15T16:08:25;47.60;;;27.58;;
51792;SDS011;37850;53.178;6.376;2023-02-15T16:10:51;45.80;;;26.52;;
51792;SDS011;37850;53.178;6.376;2023-02-15T16:13:16;46.78;;;26.35;;
51792;SDS011;37850;53.178;6.376;2023-02-15T16:15:46;49.60;;;27.65;;
51792;SDS011;37850;53.178;6.376;2023-02-15T16:18:15;47.58;;;27.48;;
51792;SDS011;37850;53.178;6.376;2023-02-15T16:21:16;48.90;;;28.88;;
51792;SDS011;37850;53.178;6.376;2023-02-15T16:29:27;51.05;;;27.58;;
51792;SDS011;37850;53.178;6.376;2023-02-15T16:34:32;50.00;;;27.45;;
51792;SDS011;37850;53.178;6.376;2023-02-15T16:37:17;47.78;;;26.92;;
51792;SDS011;37850;53.178;6.376;2023-02-15T16:39:46;47.72;;;28.23;;
51792;SDS011;37850;53.178;6.376;2023-02-15T16:42:16;46.97;;;27.98;;
51792;SDS011;37850;53.178;6.376;2023-02-15T16:44:43;47.13;;;26.90;;
51792;SDS011;37850;53.178;6.376;2023-02-15T16:47:15;47.05;;;27.42;;
51792;SDS011;37850;53.178;6.376;2023-02-15T16:49:48;46.33;;;27.73;;
51792;SDS011;37850;53.178;6.376;2023-02-15T16:52:21;48.00;;;27.52;;
51792;SDS011;37850;53.178;6.376;2023-02-15T16:55:02;48.35;;;27.48;;
51792;SDS011;37850;53.178;6.376;2023-02-15T16:57:31;50.05;;;27.52;;
51792;SDS011;37850;53.178;6.376;2023-02-15T17:00:07;46.42;;;28.23;;
51792;SDS011;37850;53.178;6.376;2023-02-15T17:02:52;52.53;;;29.40;;
51792;SDS011;37850;53.178;6.376;2023-02-15T17:05:30;47.88;;;28.02;;
51792;SDS011;37850;53.178;6.376;2023-02-15T17:08:12;52.05;;;28.60;;
51792;SDS011;37850;53.178;6.376;2023-02-15T17:13:35;49.13;;;28.80;;
51792;SDS011;37850;53.178;6.376;2023-02-15T17:19:01;52.63;;;29.63;;
51792;SDS011;37850;53.178;6.376;2023-02-15T17:21:32;50.33;;;28.67;;
51792;SDS011;37850;53.178;6.376;2023-02-15T17:24:02;52.38;;;29.45;;
51792;SDS011;37850;53.178;6.376;2023-02-15T17:28:59;48.05;;;28.05;;
51792;SDS011;37850;53.178;6.376;2023-02-15T17:31:37;49.13;;;27.85;;
51792;SDS011;37850;53.178;6.376;2023-02-15T17:34:03;50.42;;;27.50;;
51792;SDS011;37850;53.178;6.376;2023-02-15T17:36:30;64.35;;;39.35;;
51792;SDS011;37850;53.178;6.376;2023-02-15T17:41:22;83.60;;;54.70;;
51792;SDS011;37850;53.178;6.376;2023-02-15T17:43:48;96.07;;;65.88;;
51792;SDS011;37850;53.178;6.376;2023-02-15T17:46:13;90.65;;;61.42;;
51792;SDS011;37850;53.178;6.376;2023-02-15T17:48:43;86.85;;;61.65;;
51792;SDS011;37850;53.178;6.376;2023-02-15T17:51:13;87.03;;;61.03;;
51792;SDS011;37850;53.178;6.376;2023-02-15T17:53:40;78.50;;;52.90;;
51792;SDS011;37850;53.178;6.376;2023-02-15T17:56:26;69.75;;;47.28;;
51792;SDS011;37850;53.178;6.376;2023-02-15T17:58:52;71.78;;;46.00;;
51792;SDS011;37850;53.178;6.376;2023-02-15T18:01:18;64.30;;;39.72;;
51792;SDS011;37850;53.178;6.376;2023-02-15T18:04:04;59.15;;;36.45;;
51792;SDS011;37850;53.178;6.376;2023-02-15T18:06:52;53.67;;;32.55;;
51792;SDS011;37850;53.178;6.376;2023-02-15T18:09:36;53.78;;;32.78;;
51792;SDS011;37850;53.178;6.376;2023-02-15T18:12:23;54.72;;;31.88;;
51792;SDS011;37850;53.178;6.376;2023-02-15T18:14:51;53.40;;;31.02;;
51792;SDS011;37850;53.178;6.376;2023-02-15T18:17:26;52.97;;;30.52;;